createdAt,value
2023-02-01T00:01:43.750Z,4.68
2023-02-01T00:04:28.933Z,4.71
2023-02-01T00:07:14.487Z,4.61
2023-02-01T00:09:59.376Z,4.68
2023-02-01T00:12:45.135Z,4.65
2023-02-01T00:15:30.037Z,4.71
2023-02-01T00:18:15.337Z,4.75
2023-02-01T00:21:01.172Z,4.69
2023-02-01T00:23:47.157Z,4.61
2023-02-01T00:26:44.088Z,4.45
2023-02-01T00:29:29.215Z,4.43
2023-02-01T00:32:14.314Z,4.43
2023-02-01T00:34:59.227Z,4.51
2023-02-01T00:37:44.556Z,4.49
2023-02-01T00:40:29.517Z,4.45
2023-02-01T00:43:14.610Z,4.25
2023-02-01T00:45:59.615Z,4.40
2023-02-01T00:48:44.997Z,4.33
2023-02-01T00:51:31.029Z,4.34
2023-02-01T00:54:16.371Z,4.38
2023-02-01T00:57:01.808Z,4.34
2023-02-01T00:59:46.828Z,4.30
2023-02-01T01:02:31.930Z,4.11
2023-02-01T01:05:17.560Z,4.28
2023-02-01T01:08:02.451Z,4.30
2023-02-01T01:10:47.464Z,4.28
2023-02-01T01:13:32.307Z,4.29
2023-02-01T01:16:18.460Z,4.29
2023-02-01T01:19:04.225Z,4.28
2023-02-01T01:21:49.553Z,4.31
2023-02-01T01:24:35.068Z,4.31
2023-02-01T01:27:24.385Z,4.28
2023-02-01T01:30:10.245Z,4.22
2023-02-01T01:32:55.569Z,4.26
2023-02-01T01:35:40.914Z,4.23
2023-02-01T01:38:26.056Z,4.23
2023-02-01T01:41:16.379Z,4.23
2023-02-01T01:44:06.568Z,4.10
2023-02-01T01:46:51.734Z,4.12
2023-02-01T01:49:39.235Z,4.13
2023-02-01T01:52:24.806Z,4.06
2023-02-01T01:55:10.578Z,4.12
2023-02-01T01:58:00.838Z,4.13
2023-02-01T02:00:47.172Z,4.12
2023-02-01T02:03:46.853Z,4.12
2023-02-01T02:06:48.815Z,4.11
2023-02-01T02:09:33.703Z,4.13
2023-02-01T02:12:19.056Z,4.03
2023-02-01T02:15:06.132Z,4.06
2023-02-01T02:18:15.890Z,3.98
2023-02-01T02:21:38.371Z,4.03
2023-02-01T02:24:57.653Z,4.05
2023-02-01T02:27:52.052Z,4.10
2023-02-01T02:31:08.065Z,4.09
2023-02-01T02:34:05.154Z,4.03
2023-02-01T02:37:13.098Z,4.06
2023-02-01T02:40:10.200Z,4.05
2023-02-01T02:43:22.878Z,4.04
2023-02-01T02:46:49.040Z,4.05
2023-02-01T02:50:11.002Z,4.05
2023-02-01T02:53:23.897Z,4.11
2023-02-01T02:56:29.774Z,4.14
2023-02-01T02:59:38.540Z,4.09
2023-02-01T03:02:43.037Z,4.12
2023-02-01T03:05:34.809Z,4.08
2023-02-01T03:08:31.947Z,3.98
2023-02-01T03:11:17.024Z,3.88
2023-02-01T03:14:07.390Z,4.07
2023-02-01T03:17:00.014Z,4.07
2023-02-01T03:19:51.159Z,4.12
2023-02-01T03:22:39.931Z,4.12
2023-02-01T03:25:31.869Z,4.17
2023-02-01T03:28:22.469Z,4.21
2023-02-01T03:31:08.130Z,4.25
2023-02-01T03:33:53.095Z,4.27
2023-02-01T03:36:50.292Z,4.31
2023-02-01T03:40:04.263Z,4.34
2023-02-01T03:42:55.621Z,4.33
2023-02-01T03:45:47.309Z,4.34
2023-02-01T03:48:33.307Z,4.32
2023-02-01T03:51:20.637Z,4.36
2023-02-01T03:54:07.754Z,4.36
2023-02-01T03:56:56.934Z,4.29
2023-02-01T03:59:43.224Z,4.29
2023-02-01T04:02:28.190Z,4.30
2023-02-01T04:05:13.694Z,4.30
2023-02-01T04:07:59.089Z,4.34
2023-02-01T04:10:44.997Z,4.22
2023-02-01T04:13:29.770Z,4.25
2023-02-01T04:16:14.854Z,4.31
2023-02-01T04:19:00.724Z,4.19
2023-02-01T04:21:46.114Z,4.23
2023-02-01T04:24:31.422Z,4.30
2023-02-01T04:27:17.018Z,4.30
2023-02-01T04:30:02.095Z,4.28
2023-02-01T04:32:47.725Z,4.25
2023-02-01T04:35:32.638Z,4.16
2023-02-01T04:38:18.113Z,4.20
2023-02-01T04:41:03.298Z,4.22
2023-02-01T04:43:49.481Z,4.20
2023-02-01T04:46:34.766Z,4.23
2023-02-01T04:49:21.043Z,4.23
2023-02-01T04:52:06.373Z,4.23
2023-02-01T04:54:51.601Z,4.01
2023-02-01T04:57:36.765Z,4.19
2023-02-01T05:00:21.998Z,4.23
2023-02-01T05:03:07.372Z,4.24
2023-02-01T05:05:54.494Z,4.27
2023-02-01T05:08:39.419Z,4.24
2023-02-01T05:11:43.350Z,4.18
2023-02-01T05:14:28.513Z,4.19
2023-02-01T05:17:13.446Z,4.22
2023-02-01T05:19:58.540Z,4.06
2023-02-01T05:22:43.587Z,4.10
2023-02-01T05:25:28.802Z,4.13
2023-02-01T05:28:13.623Z,4.04
2023-02-01T05:30:58.726Z,4.12
2023-02-01T05:33:43.866Z,4.09
2023-02-01T05:36:28.847Z,4.05
2023-02-01T05:39:14.190Z,4.03
2023-02-01T05:41:59.372Z,4.05
2023-02-01T05:44:44.506Z,3.91
2023-02-01T05:47:29.596Z,3.91
2023-02-01T05:50:14.942Z,4.09
2023-02-01T05:53:00.177Z,4.07
2023-02-01T05:55:45.175Z,4.03
2023-02-01T05:58:31.328Z,4.07
2023-02-01T06:01:16.454Z,4.06
2023-02-01T06:04:01.642Z,4.02
2023-02-01T06:06:46.792Z,3.82
2023-02-01T06:09:32.121Z,3.90
2023-02-01T06:12:17.445Z,4.02
2023-02-01T06:15:02.374Z,3.87
2023-02-01T06:17:47.831Z,4.06
2023-02-01T06:20:32.775Z,3.92
2023-02-01T06:23:17.701Z,3.98
2023-02-01T06:26:08.856Z,3.86
2023-02-01T06:28:54.113Z,3.95
2023-02-01T06:31:39.597Z,3.98
2023-02-01T06:34:25.225Z,3.94
2023-02-01T06:37:12.161Z,4.02
2023-02-01T06:39:57.109Z,4.04
2023-02-01T06:42:42.052Z,4.02
2023-02-01T06:45:27.339Z,4.07
2023-02-01T06:48:12.276Z,4.06
2023-02-01T06:50:57.417Z,4.04
2023-02-01T06:53:42.855Z,4.01
2023-02-01T06:56:28.569Z,4.04
2023-02-01T06:59:16.068Z,4.05
2023-02-01T07:02:02.431Z,4.07
2023-02-01T07:04:48.069Z,3.95
2023-02-01T07:07:33.010Z,4.08
2023-02-01T07:10:18.046Z,4.08
2023-02-01T07:13:03.136Z,4.00
2023-02-01T07:15:48.513Z,4.11
2023-02-01T07:18:34.193Z,4.06
2023-02-01T07:21:20.219Z,3.98
2023-02-01T07:24:05.556Z,4.20
2023-02-01T07:26:52.077Z,4.22
2023-02-01T07:29:37.344Z,4.27
2023-02-01T07:32:22.383Z,4.32
2023-02-01T07:35:07.824Z,4.31
2023-02-01T07:37:52.614Z,4.37
2023-02-01T07:40:37.567Z,4.37
2023-02-01T07:43:22.565Z,4.39
2023-02-01T07:46:08.220Z,4.46
2023-02-01T07:48:53.425Z,4.50
2023-02-01T07:51:38.467Z,4.55
2023-02-01T07:54:23.674Z,4.61
2023-02-01T07:57:09.729Z,4.64
2023-02-01T08:00:13.765Z,4.64
2023-02-01T08:02:59.895Z,4.58
2023-02-01T08:05:44.776Z,4.73
2023-02-01T08:08:30.107Z,4.72
2023-02-01T08:11:16.382Z,4.77
2023-02-01T08:14:01.596Z,4.78
2023-02-01T08:16:46.767Z,4.79
2023-02-01T08:19:32.181Z,4.76
2023-02-01T08:22:17.195Z,4.75
2023-02-01T08:25:02.484Z,4.77
2023-02-01T08:27:47.855Z,4.73
2023-02-01T08:30:33.251Z,4.78
2023-02-01T08:33:19.667Z,4.77
2023-02-01T08:36:06.676Z,4.80
2023-02-01T08:38:58.398Z,4.88
2023-02-01T08:42:03.522Z,4.87
2023-02-01T08:44:48.459Z,4.93
2023-02-01T08:47:33.543Z,4.94
2023-02-01T08:50:19.573Z,5.00
2023-02-01T08:53:04.593Z,5.00
2023-02-01T08:55:50.134Z,5.03
2023-02-01T08:58:35.691Z,5.06
2023-02-01T09:01:20.910Z,5.01
2023-02-01T09:04:06.135Z,5.00
2023-02-01T09:06:51.357Z,5.03
2023-02-01T09:09:37.454Z,5.06
2023-02-01T09:12:22.389Z,5.07
2023-02-01T09:15:08.728Z,5.07
2023-02-01T09:17:53.724Z,5.07
2023-02-01T09:20:38.888Z,5.07
2023-02-01T09:23:23.992Z,5.08
2023-02-01T09:26:09.955Z,5.15
2023-02-01T09:28:55.104Z,5.19
2023-02-01T09:31:44.179Z,5.28
2023-02-01T09:34:35.527Z,5.34
2023-02-01T09:37:21.171Z,5.47
2023-02-01T09:40:06.778Z,5.52
2023-02-01T09:43:10.935Z,5.61
2023-02-01T09:46:05.288Z,5.79
2023-02-01T09:48:53.644Z,5.93
2023-02-01T09:51:45.751Z,5.99
2023-02-01T09:54:48.161Z,6.12
2023-02-01T09:57:49.080Z,6.27
2023-02-01T10:00:39.855Z,6.32
2023-02-01T10:03:28.765Z,6.46
2023-02-01T10:07:11.249Z,6.55
2023-02-01T10:10:37.495Z,6.74
2023-02-01T10:13:35.076Z,6.87
2023-02-01T10:16:59.194Z,6.95
2023-02-01T10:20:29.050Z,6.92
2023-02-01T10:23:32.828Z,7.12
2023-02-01T10:26:28.328Z,7.19
2023-02-01T10:29:20.631Z,7.29
2023-02-01T10:32:15.110Z,7.34
2023-02-01T10:35:03.767Z,7.41
2023-02-01T10:37:49.004Z,7.53
2023-02-01T10:40:34.509Z,7.56
2023-02-01T10:43:19.584Z,7.64
2023-02-01T10:46:05.150Z,7.72
2023-02-01T10:48:53.491Z,7.80
2023-02-01T10:51:46.148Z,7.87
2023-02-01T10:54:38.936Z,7.95
2023-02-01T10:57:27.135Z,8.09
2023-02-01T11:00:21.174Z,8.25
2023-02-01T11:03:40.854Z,8.38
2023-02-01T11:06:32.232Z,8.24
2023-02-01T11:09:22.248Z,8.15
2023-02-01T11:12:31.776Z,8.05
2023-02-01T11:15:21.729Z,8.07
2023-02-01T11:18:25.653Z,8.05
2023-02-01T11:21:12.004Z,7.95
2023-02-01T11:24:02.553Z,8.07
2023-02-01T11:26:47.793Z,8.21
2023-02-01T11:29:39.503Z,8.32
2023-02-01T11:32:25.931Z,8.42
2023-02-01T11:35:18.217Z,8.45
2023-02-01T11:38:13.317Z,8.54
2023-02-01T11:41:22.200Z,8.68
2023-02-01T11:44:22.592Z,8.70
2023-02-01T11:47:22.988Z,8.72
2023-02-01T11:50:19.585Z,8.56
2023-02-01T11:53:54.725Z,8.56
2023-02-01T11:56:49.039Z,8.53
2023-02-01T11:59:51.669Z,8.53
2023-02-01T12:02:58.233Z,8.66
2023-02-01T12:06:09.395Z,8.69
2023-02-01T12:09:32.272Z,8.74
2023-02-01T12:12:32.343Z,8.75
2023-02-01T12:15:30.316Z,8.72
2023-02-01T12:18:28.207Z,8.74
2023-02-01T12:21:32.839Z,8.76
2023-02-01T12:24:36.603Z,8.74
2023-02-01T12:27:33.716Z,8.66
2023-02-01T12:30:32.332Z,8.80
2023-02-01T12:33:45.828Z,8.88
2023-02-01T12:36:55.000Z,9.00
2023-02-01T12:40:07.343Z,9.35
2023-02-01T12:43:22.694Z,9.63
2023-02-01T12:46:32.802Z,9.82
2023-02-01T12:49:34.507Z,9.80
2023-02-01T12:52:30.159Z,9.75
2023-02-01T12:55:20.854Z,9.62
2023-02-01T12:58:15.078Z,9.58
2023-02-01T13:01:03.530Z,9.63
2023-02-01T13:04:27.258Z,9.90
2023-02-01T13:07:25.082Z,9.87
2023-02-01T13:10:23.566Z,9.94
2023-02-01T13:13:19.891Z,10.11
2023-02-01T13:16:29.853Z,10.14
2023-02-01T13:19:20.180Z,10.06
2023-02-01T13:22:35.274Z,10.06
2023-02-01T13:25:30.968Z,10.02
2023-02-01T13:28:42.250Z,9.96
2023-02-01T13:31:40.715Z,10.02
2023-02-01T13:34:38.527Z,10.22
2023-02-01T13:37:32.801Z,10.07
2023-02-01T13:40:30.011Z,10.11
2023-02-01T13:43:28.827Z,10.03
2023-02-01T13:46:15.673Z,9.99
2023-02-01T13:49:03.631Z,9.92
2023-02-01T13:51:52.447Z,9.93
2023-02-01T13:54:40.013Z,9.97
2023-02-01T13:57:40.305Z,10.00
2023-02-01T14:00:35.835Z,9.93
2023-02-01T14:03:43.060Z,10.00
2023-02-01T14:06:28.383Z,10.04
2023-02-01T14:09:39.966Z,10.05
2023-02-01T14:12:47.209Z,10.09
2023-02-01T14:15:32.405Z,10.27
2023-02-01T14:18:35.842Z,10.50
2023-02-01T14:21:33.005Z,10.85
2023-02-01T14:24:26.309Z,11.09
2023-02-01T14:27:16.152Z,11.22
2023-02-01T14:30:08.415Z,11.25
2023-02-01T14:32:54.256Z,11.07
2023-02-01T14:35:40.053Z,11.13
2023-02-01T14:38:25.127Z,11.03
2023-02-01T14:41:26.620Z,10.82
2023-02-01T14:44:11.423Z,10.82
2023-02-01T14:47:25.732Z,10.70
2023-02-01T14:50:11.138Z,10.64
2023-02-01T14:53:12.522Z,10.48
2023-02-01T14:56:21.392Z,10.46
2023-02-01T14:59:16.899Z,10.42
2023-02-01T15:02:02.226Z,10.37
2023-02-01T15:04:52.929Z,10.36
2023-02-01T15:07:38.303Z,10.31
2023-02-01T15:10:24.612Z,10.32
2023-02-01T15:13:29.451Z,10.41
2023-02-01T15:16:16.794Z,10.37
2023-02-01T15:19:11.024Z,10.34
2023-02-01T15:21:58.734Z,10.32
2023-02-01T15:24:54.008Z,10.35
2023-02-01T15:27:39.216Z,10.30
2023-02-01T15:30:30.375Z,10.29
2023-02-01T15:33:15.460Z,10.38
2023-02-01T15:36:06.519Z,10.28
2023-02-01T15:39:15.173Z,10.28
2023-02-01T15:42:09.916Z,10.19
2023-02-01T15:44:55.100Z,10.08
2023-02-01T15:47:42.064Z,10.15
2023-02-01T15:50:29.853Z,10.10
2023-02-01T15:53:22.338Z,10.05
2023-02-01T15:56:07.770Z,10.05
2023-02-01T15:59:01.167Z,9.95
2023-02-01T16:01:47.254Z,9.93
2023-02-01T16:04:33.860Z,9.90
2023-02-01T16:07:32.347Z,9.86
2023-02-01T16:10:28.373Z,9.90
2023-02-01T16:13:15.358Z,9.81
2023-02-01T16:16:00.344Z,9.93
2023-02-01T16:18:46.113Z,9.74
2023-02-01T16:21:31.411Z,9.69
2023-02-01T16:24:16.676Z,9.56
2023-02-01T16:27:01.649Z,9.55
2023-02-01T16:29:46.913Z,9.50
2023-02-01T16:32:32.217Z,9.48
2023-02-01T16:35:25.498Z,9.42
2023-02-01T16:38:14.377Z,9.37
2023-02-01T16:41:00.334Z,9.35
2023-02-01T16:43:46.024Z,9.40
2023-02-01T16:46:35.847Z,9.38
2023-02-01T16:49:23.895Z,9.37
2023-02-01T16:52:15.609Z,9.32
2023-02-01T16:55:00.891Z,9.32
2023-02-01T16:57:46.285Z,9.65
2023-02-01T17:00:34.500Z,9.54
2023-02-01T17:03:20.875Z,9.38
2023-02-01T17:06:07.396Z,9.28
2023-02-01T17:08:55.327Z,9.26
2023-02-01T17:11:40.788Z,9.27
2023-02-01T17:14:25.884Z,9.26
2023-02-01T17:17:11.379Z,9.21
2023-02-01T17:19:56.760Z,9.23
2023-02-01T17:22:41.942Z,9.25
2023-02-01T17:25:28.541Z,9.18
2023-02-01T17:28:13.773Z,9.11
2023-02-01T17:30:58.861Z,9.13
2023-02-01T17:33:45.024Z,9.12
2023-02-01T17:36:29.985Z,9.08
2023-02-01T17:39:36.515Z,9.06
2023-02-01T17:42:22.603Z,9.01
2023-02-01T17:45:28.498Z,8.92
2023-02-01T17:48:13.714Z,8.84
2023-02-01T17:51:00.801Z,8.80
2023-02-01T17:53:46.043Z,8.88
2023-02-01T17:56:31.750Z,8.89
2023-02-01T17:59:17.601Z,8.80
2023-02-01T18:02:02.905Z,8.83
2023-02-01T18:04:49.291Z,8.80
2023-02-01T18:07:34.309Z,8.79
2023-02-01T18:10:19.471Z,8.71
2023-02-01T18:13:05.110Z,8.67
2023-02-01T18:15:50.013Z,8.76
2023-02-01T18:18:52.667Z,8.65
2023-02-01T18:21:42.447Z,8.65
2023-02-01T18:24:27.931Z,8.65
2023-02-01T18:27:12.923Z,8.65
2023-02-01T18:29:58.134Z,8.61
2023-02-01T18:32:44.542Z,8.59
2023-02-01T18:35:31.785Z,8.56
2023-02-01T18:38:16.780Z,8.52
2023-02-01T18:41:05.043Z,8.49
2023-02-01T18:43:51.679Z,8.48
2023-02-01T18:46:36.854Z,8.45
2023-02-01T18:49:22.188Z,8.39
2023-02-01T18:52:07.219Z,8.45
2023-02-01T18:54:59.119Z,8.39
2023-02-01T18:57:45.067Z,8.43
2023-02-01T19:00:30.662Z,8.29
2023-02-01T19:03:16.532Z,8.35
2023-02-01T19:06:01.900Z,8.33
2023-02-01T19:08:47.498Z,8.24
2023-02-01T19:11:32.468Z,8.31
2023-02-01T19:14:17.468Z,8.29
2023-02-01T19:17:02.411Z,8.29
2023-02-01T19:19:48.081Z,8.05
2023-02-01T19:22:33.736Z,8.22
2023-02-01T19:25:29.937Z,8.23
2023-02-01T19:28:16.002Z,8.23
2023-02-01T19:31:05.588Z,8.09
2023-02-01T19:33:50.827Z,8.13
2023-02-01T19:36:40.943Z,8.08
2023-02-01T19:39:27.514Z,8.09
2023-02-01T19:42:13.827Z,8.06
2023-02-01T19:44:59.056Z,8.10
2023-02-01T19:47:44.413Z,8.05
2023-02-01T19:50:29.630Z,7.88
2023-02-01T19:53:14.450Z,8.04
2023-02-01T19:56:01.315Z,8.04
2023-02-01T19:58:46.318Z,7.98
2023-02-01T20:01:31.186Z,7.94
2023-02-01T20:04:18.882Z,7.93
2023-02-01T20:07:03.894Z,7.83
2023-02-01T20:09:49.194Z,7.88
2023-02-01T20:12:34.518Z,7.86
2023-02-01T20:15:22.046Z,7.79
2023-02-01T20:18:07.886Z,7.81
2023-02-01T20:20:57.588Z,7.87
2023-02-01T20:23:42.771Z,7.83
2023-02-01T20:26:29.086Z,7.80
2023-02-01T20:29:15.325Z,7.76
2023-02-01T20:32:00.286Z,7.74
2023-02-01T20:34:45.618Z,7.69
2023-02-01T20:37:30.806Z,7.64
2023-02-01T20:40:16.107Z,7.62
2023-02-01T20:43:01.239Z,7.56
2023-02-01T20:45:49.720Z,7.57
2023-02-01T20:48:34.728Z,7.54
2023-02-01T20:51:21.478Z,7.49
2023-02-01T20:54:06.735Z,7.52
2023-02-01T20:56:51.752Z,7.50
2023-02-01T20:59:36.940Z,7.48
2023-02-01T21:02:22.446Z,7.45
2023-02-01T21:05:08.163Z,7.43
2023-02-01T21:07:53.427Z,7.36
2023-02-01T21:10:39.361Z,7.36
2023-02-01T21:13:30.475Z,7.31
2023-02-01T21:16:15.932Z,7.36
2023-02-01T21:19:01.037Z,7.36
2023-02-01T21:21:46.159Z,7.25
2023-02-01T21:24:31.323Z,7.28
2023-02-01T21:27:16.476Z,7.32
2023-02-01T21:30:01.605Z,7.32
2023-02-01T21:32:49.732Z,7.33
2023-02-01T21:35:34.875Z,7.37
2023-02-01T21:38:20.455Z,7.39
2023-02-01T21:41:24.431Z,7.45
2023-02-01T21:44:10.128Z,7.48
2023-02-01T21:46:55.664Z,7.46
2023-02-01T21:49:40.888Z,7.45
2023-02-01T21:52:26.391Z,7.51
2023-02-01T21:55:13.004Z,7.53
2023-02-01T21:57:57.780Z,7.54
2023-02-01T22:00:47.375Z,7.54
2023-02-01T22:03:32.598Z,7.55
2023-02-01T22:06:32.138Z,7.59
2023-02-01T22:09:25.685Z,7.64
2023-02-01T22:12:14.847Z,7.63
2023-02-01T22:14:59.857Z,7.63
2023-02-01T22:17:44.978Z,7.64
2023-02-01T22:20:30.395Z,7.65
2023-02-01T22:23:16.174Z,7.68
2023-02-01T22:26:08.776Z,7.67
2023-02-01T22:28:54.388Z,7.65
2023-02-01T22:31:40.091Z,7.69
2023-02-01T22:34:24.953Z,7.70
2023-02-01T22:37:11.286Z,7.62
2023-02-01T22:39:58.189Z,7.73
2023-02-01T22:42:43.434Z,7.73
2023-02-01T22:45:28.742Z,7.71
2023-02-01T22:48:13.648Z,7.64
2023-02-01T22:51:00.039Z,7.72
2023-02-01T22:53:45.859Z,7.69
2023-02-01T22:56:34.140Z,7.70
2023-02-01T22:59:19.158Z,7.70
2023-02-01T23:02:04.354Z,7.72
2023-02-01T23:04:49.383Z,7.65
2023-02-01T23:07:34.374Z,7.65
2023-02-01T23:10:20.228Z,7.60
2023-02-01T23:13:05.466Z,7.60
2023-02-01T23:15:50.285Z,7.54
2023-02-01T23:18:35.623Z,7.47
2023-02-01T23:21:22.506Z,7.43
2023-02-01T23:24:10.041Z,7.38
2023-02-01T23:26:55.541Z,7.40
2023-02-01T23:29:40.983Z,7.37
2023-02-01T23:32:26.202Z,7.34
2023-02-01T23:35:11.274Z,7.45
2023-02-01T23:37:56.351Z,7.50
2023-02-01T23:40:41.289Z,7.42
2023-02-01T23:43:45.943Z,7.49
2023-02-01T23:46:41.159Z,7.55
2023-02-01T23:49:26.200Z,7.57
2023-02-01T23:52:11.570Z,7.57
2023-02-01T23:54:56.709Z,7.59
2023-02-01T23:57:41.707Z,7.58
